sensor_id;sensor_type;location;lat;lon;timestamp;pressure;altitude;pressure_sealevel;temperature;humidity
38812;BME280;24553;51.640;-0.752;2023-01-28T00:01:49;102431.84;;;0.49;100.00
38812;BME280;24553;51.640;-0.752;2023-01-28T00:04:15;102434.44;;;0.49;100.00
38812;BME280;24553;51.640;-0.752;2023-01-28T00:06:41;102433.34;;;0.53;100.00
38812;BME280;24553;51.640;-0.752;2023-01-28T00:09:06;102435.78;;;0.56;100.00
38812;BME280;24553;51.640;-0.752;2023-01-28T00:11:32;102441.00;;;0.56;100.00
38812;BME280;24553;51.640;-0.752;2023-01-28T00:13:58;102439.94;;;0.60;100.00
38812;BME280;24553;51.640;-0.752;2023-01-28T00:16:23;102442.22;;;0.67;100.00
38812;BME280;24553;51.640;-0.752;2023-01-28T00:18:51;102443.00;;;0.69;100.00
38812;BME280;24553;51.640;-0.752;2023-01-28T00:21:16;102441.94;;;0.73;100.00
38812;BME280;24553;51.640;-0.752;2023-01-28T00:23:45;102440.94;;;0.75;100.00
38812;BME280;24553;51.640;-0.752;2023-01-28T00:26:13;102443.28;;;0.80;100.00
38812;BME280;24553;51.640;-0.752;2023-01-28T00:28:40;102438.66;;;0.85;100.00
38812;BME280;24553;51.640;-0.752;2023-01-28T00:31:07;102431.78;;;0.84;100.00
38812;BME280;24553;51.640;-0.752;2023-01-28T00:33:34;102432.38;;;0.89;100.00
38812;BME280;24553;51.640;-0.752;2023-01-28T00:36:00;102432.38;;;0.89;100.00
38812;BME280;24553;51.640;-0.752;2023-01-28T00:38:26;102427.69;;;0.96;100.00
38812;BME280;24553;51.640;-0.752;2023-01-28T00:40:52;102417.84;;;1.01;100.00
38812;BME280;24553;51.640;-0.752;2023-01-28T00:43:17;102414.84;;;0.91;100.00
38812;BME280;24553;51.640;-0.752;2023-01-28T00:45:43;102415.63;;;0.93;100.00
38812;BME280;24553;51.640;-0.752;2023-01-28T00:48:08;102413.63;;;0.98;100.00
38812;BME280;24553;51.640;-0.752;2023-01-28T00:50:33;102417.47;;;0.91;100.00
38812;BME280;24553;51.640;-0.752;2023-01-28T00:52:59;102421.75;;;0.92;100.00
38812;BME280;24553;51.640;-0.752;2023-01-28T00:55:24;102417.78;;;0.85;100.00
38812;BME280;24553;51.640;-0.752;2023-01-28T00:57:50;102428.22;;;0.85;100.00
38812;BME280;24553;51.640;-0.752;2023-01-28T01:00:16;102420.31;;;0.86;100.00
38812;BME280;24553;51.640;-0.752;2023-01-28T01:02:44;102434.97;;;0.89;100.00
38812;BME280;24553;51.640;-0.752;2023-01-28T01:05:09;102433.44;;;0.85;100.00
38812;BME280;24553;51.640;-0.752;2023-01-28T01:07:35;102437.44;;;0.92;100.00
38812;BME280;24553;51.640;-0.752;2023-01-28T01:10:08;102438.03;;;0.97;100.00
38812;BME280;24553;51.640;-0.752;2023-01-28T01:12:34;102438.13;;;0.96;100.00
38812;BME280;24553;51.640;-0.752;2023-01-28T01:15:00;102447.72;;;0.95;100.00
38812;BME280;24553;51.640;-0.752;2023-01-28T01:17:29;102457.41;;;0.93;100.00
38812;BME280;24553;51.640;-0.752;2023-01-28T01:19:54;102445.25;;;0.92;100.00
38812;BME280;24553;51.640;-0.752;2023-01-28T01:22:19;102446.97;;;0.93;100.00
38812;BME280;24553;51.640;-0.752;2023-01-28T01:24:46;102444.19;;;0.96;100.00
38812;BME280;24553;51.640;-0.752;2023-01-28T01:27:12;102442.97;;;1.03;100.00
38812;BME280;24553;51.640;-0.752;2023-01-28T01:29:38;102436.78;;;1.04;100.00
38812;BME280;24553;51.640;-0.752;2023-01-28T01:32:03;102438.75;;;1.17;100.00
38812;BME280;24553;51.640;-0.752;2023-01-28T01:34:28;102427.78;;;1.26;100.00
38812;BME280;24553;51.640;-0.752;2023-01-28T01:36:54;102427.03;;;1.24;100.00
38812;BME280;24553;51.640;-0.752;2023-01-28T01:39:19;102420.31;;;1.20;100.00
38812;BME280;24553;51.640;-0.752;2023-01-28T01:41:44;102424.16;;;1.13;100.00
38812;BME280;24553;51.640;-0.752;2023-01-28T01:45:03;102423.81;;;1.19;100.00
38812;BME280;24553;51.640;-0.752;2023-01-28T01:52:41;102422.81;;;1.21;100.00
38812;BME280;24553;51.640;-0.752;2023-01-28T01:55:11;102422.97;;;1.18;100.00
38812;BME280;24553;51.640;-0.752;2023-01-28T01:57:38;102425.69;;;1.17;100.00
38812;BME280;24553;51.640;-0.752;2023-01-28T02:00:06;102423.09;;;1.17;100.00
38812;BME280;24553;51.640;-0.752;2023-01-28T02:02:40;102425.59;;;1.18;100.00
38812;BME280;24553;51.640;-0.752;2023-01-28T02:05:07;102427.19;;;1.21;100.00
38812;BME280;24553;51.640;-0.752;2023-01-28T02:07:33;102425.53;;;1.20;100.00
38812;BME280;24553;51.640;-0.752;2023-01-28T02:09:58;102426.38;;;1.20;100.00
38812;BME280;24553;51.640;-0.752;2023-01-28T02:12:29;102422.91;;;1.20;100.00
38812;BME280;24553;51.640;-0.752;2023-01-28T02:14:59;102425.78;;;1.31;100.00
38812;BME280;24553;51.640;-0.752;2023-01-28T02:17:27;102424.69;;;1.35;100.00
38812;BME280;24553;51.640;-0.752;2023-01-28T02:31:10;102436.66;;;1.39;100.00
38812;BME280;24553;51.640;-0.752;2023-01-28T02:33:44;102431.00;;;1.31;100.00
38812;BME280;24553;51.640;-0.752;2023-01-28T02:36:38;102435.16;;;1.35;100.00
38812;BME280;24553;51.640;-0.752;2023-01-28T02:39:12;102438.69;;;1.34;100.00
38812;BME280;24553;51.640;-0.752;2023-01-28T02:41:47;102443.00;;;1.35;100.00
38812;BME280;24553;51.640;-0.752;2023-01-28T02:44:14;102437.84;;;1.34;100.00
38812;BME280;24553;51.640;-0.752;2023-01-28T02:46:39;102450.06;;;1.33;100.00
38812;BME280;24553;51.640;-0.752;2023-01-28T02:49:28;102450.91;;;1.34;100.00
38812;BME280;24553;51.640;-0.752;2023-01-28T02:52:03;102446.28;;;1.39;100.00
38812;BME280;24553;51.640;-0.752;2023-01-28T02:57:33;102456.31;;;1.46;100.00
38812;BME280;24553;51.640;-0.752;2023-01-28T03:03:03;102457.84;;;1.50;100.00
38812;BME280;24553;51.640;-0.752;2023-01-28T03:05:35;102463.97;;;1.49;100.00
38812;BME280;24553;51.640;-0.752;2023-01-28T03:08:03;102458.63;;;1.52;100.00
38812;BME280;24553;51.640;-0.752;2023-01-28T03:10:50;102454.88;;;1.57;100.00
38812;BME280;24553;51.640;-0.752;2023-01-28T03:13:36;102452.03;;;1.61;100.00
38812;BME280;24553;51.640;-0.752;2023-01-28T03:16:21;102456.06;;;1.67;100.00
38812;BME280;24553;51.640;-0.752;2023-01-28T03:19:05;102455.66;;;1.74;100.00
38812;BME280;24553;51.640;-0.752;2023-01-28T03:21:49;102449.41;;;1.77;100.00
38812;BME280;24553;51.640;-0.752;2023-01-28T03:24:42;102449.81;;;1.69;100.00
38812;BME280;24553;51.640;-0.752;2023-01-28T03:27:47;102453.97;;;1.73;100.00
38812;BME280;24553;51.640;-0.752;2023-01-28T03:30:38;102462.84;;;1.71;100.00
38812;BME280;24553;51.640;-0.752;2023-01-28T03:33:24;102464.75;;;1.67;100.00
38812;BME280;24553;51.640;-0.752;2023-01-28T03:36:09;102463.16;;;1.65;100.00
38812;BME280;24553;51.640;-0.752;2023-01-28T03:38:54;102474.31;;;1.68;100.00
38812;BME280;24553;51.640;-0.752;2023-01-28T03:41:21;102466.88;;;1.77;100.00
38812;BME280;24553;51.640;-0.752;2023-01-28T03:43:48;102475.81;;;1.72;100.00
38812;BME280;24553;51.640;-0.752;2023-01-28T03:46:14;102462.66;;;1.74;100.00
38812;BME280;24553;51.640;-0.752;2023-01-28T03:48:39;102457.19;;;1.79;100.00
38812;BME280;24553;51.640;-0.752;2023-01-28T03:51:05;102454.44;;;1.80;100.00
38812;BME280;24553;51.640;-0.752;2023-01-28T03:53:30;102459.28;;;1.72;100.00
38812;BME280;24553;51.640;-0.752;2023-01-28T03:55:55;102456.66;;;1.72;100.00
38812;BME280;24553;51.640;-0.752;2023-01-28T03:58:22;102444.94;;;1.79;100.00
38812;BME280;24553;51.640;-0.752;2023-01-28T04:00:52;102455.22;;;1.82;100.00
38812;BME280;24553;51.640;-0.752;2023-01-28T04:03:19;102457.91;;;1.81;100.00
38812;BME280;24553;51.640;-0.752;2023-01-28T04:06:00;102456.91;;;1.83;100.00
38812;BME280;24553;51.640;-0.752;2023-01-28T04:08:25;102457.84;;;1.82;100.00
38812;BME280;24553;51.640;-0.752;2023-01-28T04:10:51;102445.84;;;1.78;100.00
38812;BME280;24553;51.640;-0.752;2023-01-28T04:13:16;102453.44;;;1.83;100.00
38812;BME280;24553;51.640;-0.752;2023-01-28T04:15:42;102453.63;;;1.80;100.00
38812;BME280;24553;51.640;-0.752;2023-01-28T04:18:08;102449.81;;;1.85;100.00
38812;BME280;24553;51.640;-0.752;2023-01-28T04:20:34;102444.25;;;1.91;100.00
38812;BME280;24553;51.640;-0.752;2023-01-28T04:23:00;102433.09;;;1.88;100.00
38812;BME280;24553;51.640;-0.752;2023-01-28T04:25:26;102426.78;;;1.92;100.00
38812;BME280;24553;51.640;-0.752;2023-01-28T04:27:51;102427.63;;;1.92;100.00
38812;BME280;24553;51.640;-0.752;2023-01-28T04:30:16;102435.47;;;1.92;100.00
38812;BME280;24553;51.640;-0.752;2023-01-28T04:32:42;102431.59;;;1.84;100.00
38812;BME280;24553;51.640;-0.752;2023-01-28T04:35:07;102428.56;;;1.91;100.00
38812;BME280;24553;51.640;-0.752;2023-01-28T04:37:33;102430.22;;;1.92;100.00
38812;BME280;24553;51.640;-0.752;2023-01-28T04:39:58;102436.06;;;1.82;100.00
38812;BME280;24553;51.640;-0.752;2023-01-28T04:42:24;102433.72;;;1.77;100.00
38812;BME280;24553;51.640;-0.752;2023-01-28T04:44:49;102428.06;;;1.69;100.00
38812;BME280;24553;51.640;-0.752;2023-01-28T04:47:14;102432.28;;;1.71;100.00
38812;BME280;24553;51.640;-0.752;2023-01-28T04:49:40;102423.91;;;1.65;100.00
38812;BME280;24553;51.640;-0.752;2023-01-28T04:52:05;102431.59;;;1.52;100.00
38812;BME280;24553;51.640;-0.752;2023-01-28T04:54:30;102438.19;;;1.43;100.00
38812;BME280;24553;51.640;-0.752;2023-01-28T04:56:56;102428.50;;;1.45;100.00
38812;BME280;24553;51.640;-0.752;2023-01-28T04:59:21;102431.13;;;1.45;100.00
38812;BME280;24553;51.640;-0.752;2023-01-28T05:01:48;102442.16;;;1.50;100.00
38812;BME280;24553;51.640;-0.752;2023-01-28T05:04:13;102443.00;;;1.51;100.00
38812;BME280;24553;51.640;-0.752;2023-01-28T05:06:40;102440.63;;;1.46;100.00
38812;BME280;24553;51.640;-0.752;2023-01-28T05:09:05;102433.63;;;1.47;100.00
38812;BME280;24553;51.640;-0.752;2023-01-28T05:11:31;102437.19;;;1.46;100.00
38812;BME280;24553;51.640;-0.752;2023-01-28T05:13:56;102445.03;;;1.46;100.00
38812;BME280;24553;51.640;-0.752;2023-01-28T05:16:21;102448.56;;;1.45;100.00
38812;BME280;24553;51.640;-0.752;2023-01-28T05:18:47;102439.63;;;1.49;100.00
38812;BME280;24553;51.640;-0.752;2023-01-28T05:21:12;102429.25;;;1.47;100.00
38812;BME280;24553;51.640;-0.752;2023-01-28T05:23:38;102431.78;;;1.49;100.00
38812;BME280;24553;51.640;-0.752;2023-01-28T05:26:03;102440.38;;;1.51;100.00
38812;BME280;24553;51.640;-0.752;2023-01-28T05:28:29;102448.28;;;1.49;100.00
38812;BME280;24553;51.640;-0.752;2023-01-28T05:30:54;102442.41;;;1.46;100.00
38812;BME280;24553;51.640;-0.752;2023-01-28T05:33:19;102446.78;;;1.45;100.00
38812;BME280;24553;51.640;-0.752;2023-01-28T05:35:45;102453.88;;;1.43;100.00
38812;BME280;24553;51.640;-0.752;2023-01-28T05:38:10;102447.03;;;1.41;100.00
38812;BME280;24553;51.640;-0.752;2023-01-28T05:40:35;102448.66;;;1.43;100.00
38812;BME280;24553;51.640;-0.752;2023-01-28T05:43:01;102453.09;;;1.41;100.00
38812;BME280;24553;51.640;-0.752;2023-01-28T05:45:26;102445.44;;;1.38;100.00
38812;BME280;24553;51.640;-0.752;2023-01-28T05:47:51;102450.31;;;1.44;100.00
38812;BME280;24553;51.640;-0.752;2023-01-28T05:50:17;102459.88;;;1.45;100.00
38812;BME280;24553;51.640;-0.752;2023-01-28T05:52:43;102447.28;;;1.52;100.00
38812;BME280;24553;51.640;-0.752;2023-01-28T05:55:09;102458.50;;;1.54;100.00
38812;BME280;24553;51.640;-0.752;2023-01-28T05:57:34;102456.91;;;1.51;100.00
38812;BME280;24553;51.640;-0.752;2023-01-28T06:00:00;102455.91;;;1.54;100.00
38812;BME280;24553;51.640;-0.752;2023-01-28T06:02:25;102458.09;;;1.62;100.00
38812;BME280;24553;51.640;-0.752;2023-01-28T06:04:50;102463.31;;;1.62;100.00
38812;BME280;24553;51.640;-0.752;2023-01-28T06:07:16;102460.63;;;1.63;100.00
38812;BME280;24553;51.640;-0.752;2023-01-28T06:09:44;102454.03;;;1.40;100.00
38812;BME280;24553;51.640;-0.752;2023-01-28T06:12:10;102470.03;;;1.34;100.00
38812;BME280;24553;51.640;-0.752;2023-01-28T06:14:35;102471.56;;;1.38;100.00
38812;BME280;24553;51.640;-0.752;2023-01-28T06:17:00;102466.28;;;1.40;100.00
38812;BME280;24553;51.640;-0.752;2023-01-28T06:19:26;102455.91;;;1.38;100.00
38812;BME280;24553;51.640;-0.752;2023-01-28T06:21:51;102463.38;;;1.28;100.00
38812;BME280;24553;51.640;-0.752;2023-01-28T06:24:16;102469.84;;;1.21;100.00
38812;BME280;24553;51.640;-0.752;2023-01-28T06:26:42;102474.22;;;1.21;100.00
38812;BME280;24553;51.640;-0.752;2023-01-28T06:29:07;102466.22;;;1.24;100.00
38812;BME280;24553;51.640;-0.752;2023-01-28T06:31:33;102468.19;;;1.36;100.00
38812;BME280;24553;51.640;-0.752;2023-01-28T06:33:58;102464.66;;;1.37;100.00
38812;BME280;24553;51.640;-0.752;2023-01-28T06:36:24;102468.84;;;1.24;100.00
38812;BME280;24553;51.640;-0.752;2023-01-28T06:38:49;102477.28;;;1.29;100.00
38812;BME280;24553;51.640;-0.752;2023-01-28T06:41:14;102464.06;;;1.32;100.00
38812;BME280;24553;51.640;-0.752;2023-01-28T06:43:40;102470.97;;;1.33;100.00
38812;BME280;24553;51.640;-0.752;2023-01-28T06:46:05;102472.81;;;1.31;100.00
38812;BME280;24553;51.640;-0.752;2023-01-28T06:48:30;102482.38;;;1.32;100.00
38812;BME280;24553;51.640;-0.752;2023-01-28T06:50:56;102482.28;;;1.34;100.00
38812;BME280;24553;51.640;-0.752;2023-01-28T06:53:21;102471.56;;;1.38;100.00
38812;BME280;24553;51.640;-0.752;2023-01-28T06:55:46;102469.03;;;1.37;100.00
38812;BME280;24553;51.640;-0.752;2023-01-28T06:58:12;102469.72;;;1.40;100.00
38812;BME280;24553;51.640;-0.752;2023-01-28T07:00:37;102473.25;;;1.39;100.00
38812;BME280;24553;51.640;-0.752;2023-01-28T07:03:03;102481.84;;;1.41;100.00
38812;BME280;24553;51.640;-0.752;2023-01-28T07:05:29;102498.25;;;1.45;100.00
38812;BME280;24553;51.640;-0.752;2023-01-28T07:07:54;102489.63;;;1.43;100.00
38812;BME280;24553;51.640;-0.752;2023-01-28T07:10:19;102487.78;;;1.45;100.00
38812;BME280;24553;51.640;-0.752;2023-01-28T07:12:45;102479.84;;;1.46;100.00
38812;BME280;24553;51.640;-0.752;2023-01-28T07:15:10;102487.09;;;1.41;100.00
38812;BME280;24553;51.640;-0.752;2023-01-28T07:17:40;102486.25;;;1.41;100.00
38812;BME280;24553;51.640;-0.752;2023-01-28T07:20:08;102493.16;;;1.42;100.00
38812;BME280;24553;51.640;-0.752;2023-01-28T07:22:34;102494.22;;;1.22;100.00
38812;BME280;24553;51.640;-0.752;2023-01-28T07:25:00;102490.38;;;0.96;100.00
38812;BME280;24553;51.640;-0.752;2023-01-28T07:27:26;102501.81;;;0.93;100.00
38812;BME280;24553;51.640;-0.752;2023-01-28T07:29:51;102501.13;;;0.90;100.00
38812;BME280;24553;51.640;-0.752;2023-01-28T07:32:16;102494.72;;;0.95;100.00
38812;BME280;24553;51.640;-0.752;2023-01-28T07:34:42;102501.63;;;1.14;100.00
38812;BME280;24553;51.640;-0.752;2023-01-28T07:37:08;102505.16;;;1.13;100.00
38812;BME280;24553;51.640;-0.752;2023-01-28T07:39:33;102506.41;;;1.05;100.00
38812;BME280;24553;51.640;-0.752;2023-01-28T07:41:59;102510.00;;;1.03;100.00
38812;BME280;24553;51.640;-0.752;2023-01-28T07:44:24;102510.28;;;0.98;100.00
38812;BME280;24553;51.640;-0.752;2023-01-28T07:46:50;102503.44;;;0.96;100.00
38812;BME280;24553;51.640;-0.752;2023-01-28T07:49:15;102512.72;;;0.84;100.00
38812;BME280;24553;51.640;-0.752;2023-01-28T07:51:40;102506.13;;;0.77;100.00
38812;BME280;24553;51.640;-0.752;2023-01-28T07:54:07;102501.84;;;0.76;100.00
38812;BME280;24553;51.640;-0.752;2023-01-28T07:56:32;102501.34;;;0.85;100.00
38812;BME280;24553;51.640;-0.752;2023-01-28T07:58:58;102508.13;;;0.89;100.00
38812;BME280;24553;51.640;-0.752;2023-01-28T08:01:23;102513.19;;;0.92;100.00
38812;BME280;24553;51.640;-0.752;2023-01-28T08:03:48;102505.50;;;0.89;100.00
38812;BME280;24553;51.640;-0.752;2023-01-28T08:06:14;102499.22;;;0.93;100.00
38812;BME280;24553;51.640;-0.752;2023-01-28T08:08:39;102501.81;;;0.93;100.00
38812;BME280;24553;51.640;-0.752;2023-01-28T08:11:09;102504.50;;;0.92;100.00
38812;BME280;24553;51.640;-0.752;2023-01-28T08:13:35;102510.91;;;0.86;100.00
38812;BME280;24553;51.640;-0.752;2023-01-28T08:16:01;102517.03;;;0.85;100.00
38812;BME280;24553;51.640;-0.752;2023-01-28T08:18:26;102517.19;;;0.82;100.00
38812;BME280;24553;51.640;-0.752;2023-01-28T08:20:56;102517.94;;;0.84;100.00
38812;BME280;24553;51.640;-0.752;2023-01-28T08:23:22;102520.41;;;0.87;100.00
38812;BME280;24553;51.640;-0.752;2023-01-28T08:25:47;102519.41;;;0.90;100.00
38812;BME280;24553;51.640;-0.752;2023-01-28T08:28:14;102524.25;;;0.97;100.00
38812;BME280;24553;51.640;-0.752;2023-01-28T08:30:40;102524.06;;;1.00;100.00
38812;BME280;24553;51.640;-0.752;2023-01-28T08:33:07;102522.34;;;1.01;100.00
38812;BME280;24553;51.640;-0.752;2023-01-28T08:35:33;102524.38;;;1.12;100.00
38812;BME280;24553;51.640;-0.752;2023-01-28T08:38:00;102520.19;;;1.25;100.00
38812;BME280;24553;51.640;-0.752;2023-01-28T08:40:26;102521.72;;;1.29;100.00
38812;BME280;24553;51.640;-0.752;2023-01-28T08:42:53;102525.94;;;1.31;100.00
38812;BME280;24553;51.640;-0.752;2023-01-28T08:45:20;102529.50;;;1.30;100.00
38812;BME280;24553;51.640;-0.752;2023-01-28T08:47:59;102523.31;;;1.31;100.00
38812;BME280;24553;51.640;-0.752;2023-01-28T08:50:28;102532.94;;;1.31;100.00
38812;BME280;24553;51.640;-0.752;2023-01-28T08:52:58;102537.16;;;1.34;100.00
38812;BME280;24553;51.640;-0.752;2023-01-28T08:55:25;102540.47;;;1.37;100.00
38812;BME280;24553;51.640;-0.752;2023-01-28T08:57:51;102542.69;;;1.45;100.00
38812;BME280;24553;51.640;-0.752;2023-01-28T09:00:17;102544.03;;;1.52;100.00
38812;BME280;24553;51.640;-0.752;2023-01-28T09:02:42;102548.34;;;1.53;100.00
38812;BME280;24553;51.640;-0.752;2023-01-28T09:05:08;102550.19;;;1.51;100.00
38812;BME280;24553;51.640;-0.752;2023-01-28T09:07:34;102556.25;;;1.51;100.00
38812;BME280;24553;51.640;-0.752;2023-01-28T09:10:00;102561.31;;;1.55;100.00
38812;BME280;24553;51.640;-0.752;2023-01-28T09:12:25;102564.31;;;1.64;100.00
38812;BME280;24553;51.640;-0.752;2023-01-28T09:14:51;102563.22;;;1.68;100.00
38812;BME280;24553;51.640;-0.752;2023-01-28T09:17:18;102562.09;;;1.72;100.00
38812;BME280;24553;51.640;-0.752;2023-01-28T09:19:43;102561.88;;;1.77;100.00
38812;BME280;24553;51.640;-0.752;2023-01-28T09:22:09;102562.47;;;1.82;100.00
38812;BME280;24553;51.640;-0.752;2023-01-28T09:24:35;102564.75;;;1.88;100.00
38812;BME280;24553;51.640;-0.752;2023-01-28T09:27:00;102564.44;;;1.94;100.00
38812;BME280;24553;51.640;-0.752;2023-01-28T09:29:26;102564.06;;;2.01;100.00
38812;BME280;24553;51.640;-0.752;2023-01-28T09:31:51;102565.25;;;2.11;100.00
38812;BME280;24553;51.640;-0.752;2023-01-28T09:34:16;102568.28;;;2.19;100.00
38812;BME280;24553;51.640;-0.752;2023-01-28T09:36:42;102566.00;;;2.29;100.00
38812;BME280;24553;51.640;-0.752;2023-01-28T09:39:07;102555.88;;;2.38;100.00
38812;BME280;24553;51.640;-0.752;2023-01-28T09:41:48;102546.75;;;2.46;100.00
38812;BME280;24553;51.640;-0.752;2023-01-28T09:46:44;102546.97;;;2.57;100.00
38812;BME280;24553;51.640;-0.752;2023-01-28T09:49:34;102544.56;;;2.68;100.00
38812;BME280;24553;51.640;-0.752;2023-01-28T09:52:01;102545.41;;;2.69;100.00
38812;BME280;24553;51.640;-0.752;2023-01-28T09:54:42;102536.25;;;2.76;100.00
38812;BME280;24553;51.640;-0.752;2023-01-28T09:57:26;102538.59;;;2.80;100.00
38812;BME280;24553;51.640;-0.752;2023-01-28T09:59:56;102542.56;;;2.88;100.00
38812;BME280;24553;51.640;-0.752;2023-01-28T10:02:36;102542.00;;;2.97;100.00
38812;BME280;24553;51.640;-0.752;2023-01-28T10:13:35;102525.75;;;3.49;100.00
38812;BME280;24553;51.640;-0.752;2023-01-28T10:16:23;102531.16;;;3.60;100.00
38812;BME280;24553;51.640;-0.752;2023-01-28T10:19:06;102518.59;;;3.80;100.00
38812;BME280;24553;51.640;-0.752;2023-01-28T10:21:41;102511.50;;;3.94;100.00
38812;BME280;24553;51.640;-0.752;2023-01-28T10:24:23;102502.75;;;4.08;100.00
38812;BME280;24553;51.640;-0.752;2023-01-28T10:26:50;102505.94;;;4.13;100.00
38812;BME280;24553;51.640;-0.752;2023-01-28T10:29:21;102515.81;;;4.23;100.00
38812;BME280;24553;51.640;-0.752;2023-01-28T10:31:58;102509.25;;;4.30;100.00
38812;BME280;24553;51.640;-0.752;2023-01-28T10:34:26;102499.91;;;4.38;100.00
38812;BME280;24553;51.640;-0.752;2023-01-28T10:36:52;102489.84;;;4.45;100.00
38812;BME280;24553;51.640;-0.752;2023-01-28T10:39:20;102480.50;;;4.54;100.00
38812;BME280;24553;51.640;-0.752;2023-01-28T10:41:46;102469.47;;;4.62;100.00
38812;BME280;24553;51.640;-0.752;2023-01-28T10:44:15;102464.34;;;4.73;100.00
38812;BME280;24553;51.640;-0.752;2023-01-28T10:46:44;102458.88;;;4.76;100.00
38812;BME280;24553;51.640;-0.752;2023-01-28T10:49:26;102450.16;;;4.88;100.00
38812;BME280;24553;51.640;-0.752;2023-01-28T10:51:51;102441.94;;;4.93;100.00
38812;BME280;24553;51.640;-0.752;2023-01-28T10:56:51;102443.84;;;5.03;100.00
38812;BME280;24553;51.640;-0.752;2023-01-28T10:59:27;102431.75;;;5.14;100.00
38812;BME280;24553;51.640;-0.752;2023-01-28T11:01:59;102423.19;;;5.23;100.00
38812;BME280;24553;51.640;-0.752;2023-01-28T11:04:29;102431.78;;;5.38;100.00
38812;BME280;24553;51.640;-0.752;2023-01-28T11:07:13;102427.31;;;5.51;100.00
38812;BME280;24553;51.640;-0.752;2023-01-28T11:09:44;102426.22;;;5.66;100.00
38812;BME280;24553;51.640;-0.752;2023-01-28T11:12:12;102419.66;;;5.72;100.00
38812;BME280;24553;51.640;-0.752;2023-01-28T11:14:53;102415.03;;;5.76;100.00
38812;BME280;24553;51.640;-0.752;2023-01-28T11:17:20;102420.66;;;5.82;100.00
38812;BME280;24553;51.640;-0.752;2023-01-28T11:19:49;102413.03;;;5.90;100.00
38812;BME280;24553;51.640;-0.752;2023-01-28T11:24:55;102401.66;;;6.14;100.00
38812;BME280;24553;51.640;-0.752;2023-01-28T11:27:27;102409.97;;;6.21;100.00
38812;BME280;24553;51.640;-0.752;2023-01-28T11:29:56;102406.97;;;6.25;100.00
38812;BME280;24553;51.640;-0.752;2023-01-28T11:32:24;102415.03;;;6.35;100.00
38812;BME280;24553;51.640;-0.752;2023-01-28T11:34:52;102399.44;;;6.32;100.00
38812;BME280;24553;51.640;-0.752;2023-01-28T11:37:21;102395.97;;;6.31;100.00
38812;BME280;24553;51.640;-0.752;2023-01-28T11:39:47;102401.00;;;6.34;100.00
38812;BME280;24553;51.640;-0.752;2023-01-28T11:42:21;102398.63;;;6.43;100.00
38812;BME280;24553;51.640;-0.752;2023-01-28T11:44:47;102393.81;;;6.37;100.00
38812;BME280;24553;51.640;-0.752;2023-01-28T11:48:00;102399.72;;;6.40;100.00
38812;BME280;24553;51.640;-0.752;2023-01-28T11:56:21;102395.06;;;6.55;100.00
38812;BME280;24553;51.640;-0.752;2023-01-28T11:59:32;102388.59;;;6.59;100.00
38812;BME280;24553;51.640;-0.752;2023-01-28T12:05:26;102388.34;;;6.73;100.00
38812;BME280;24553;51.640;-0.752;2023-01-28T12:08:08;102392.44;;;6.77;100.00
38812;BME280;24553;51.640;-0.752;2023-01-28T12:13:32;102406.47;;;7.01;100.00
38812;BME280;24553;51.640;-0.752;2023-01-28T12:16:07;102399.13;;;7.04;100.00
38812;BME280;24553;51.640;-0.752;2023-01-28T12:24:01;102386.31;;;6.99;100.00
38812;BME280;24553;51.640;-0.752;2023-01-28T12:29:46;102383.53;;;7.12;100.00
38812;BME280;24553;51.640;-0.752;2023-01-28T12:32:32;102385.59;;;7.09;100.00
38812;BME280;24553;51.640;-0.752;2023-01-28T12:38:14;102383.53;;;7.12;100.00
38812;BME280;24553;51.640;-0.752;2023-01-28T12:43:32;102373.00;;;7.12;100.00
38812;BME280;24553;51.640;-0.752;2023-01-28T12:48:45;102357.56;;;7.08;100.00
38812;BME280;24553;51.640;-0.752;2023-01-28T12:51:18;102364.38;;;7.10;100.00
38812;BME280;24553;51.640;-0.752;2023-01-28T12:53:51;102366.53;;;7.16;100.00
38812;BME280;24553;51.640;-0.752;2023-01-28T13:01:20;102345.44;;;7.05;100.00
38812;BME280;24553;51.640;-0.752;2023-01-28T13:03:57;102337.63;;;7.15;100.00
38812;BME280;24553;51.640;-0.752;2023-01-28T13:06:32;102342.31;;;7.11;100.00
38812;BME280;24553;51.640;-0.752;2023-01-28T13:09:05;102340.03;;;7.07;100.00
38812;BME280;24553;51.640;-0.752;2023-01-28T13:11:36;102340.63;;;6.99;100.00
38812;BME280;24553;51.640;-0.752;2023-01-28T13:14:03;102345.59;;;6.92;100.00
38812;BME280;24553;51.640;-0.752;2023-01-28T13:16:29;102340.91;;;6.85;100.00
38812;BME280;24553;51.640;-0.752;2023-01-28T13:19:05;102335.03;;;6.92;100.00
38812;BME280;24553;51.640;-0.752;2023-01-28T13:21:35;102334.28;;;7.02;100.00
38812;BME280;24553;51.640;-0.752;2023-01-28T13:31:46;102317.13;;;7.18;100.00
38812;BME280;24553;51.640;-0.752;2023-01-28T13:34:40;102318.91;;;7.18;100.00
38812;BME280;24553;51.640;-0.752;2023-01-28T13:37:22;102310.16;;;7.17;100.00
38812;BME280;24553;51.640;-0.752;2023-01-28T13:39:59;102322.88;;;7.24;100.00
38812;BME280;24553;51.640;-0.752;2023-01-28T13:42:28;102312.97;;;7.37;100.00
38812;BME280;24553;51.640;-0.752;2023-01-28T13:44:55;102311.63;;;7.42;100.00
38812;BME280;24553;51.640;-0.752;2023-01-28T13:47:32;102316.34;;;7.28;100.00
38812;BME280;24553;51.640;-0.752;2023-01-28T13:50:10;102319.91;;;7.06;100.00
38812;BME280;24553;51.640;-0.752;2023-01-28T13:52:48;102328.06;;;7.03;100.00
38812;BME280;24553;51.640;-0.752;2023-01-28T13:55:19;102323.16;;;6.75;100.00
38812;BME280;24553;51.640;-0.752;2023-01-28T14:06:50;102313.69;;;6.73;100.00
38812;BME280;24553;51.640;-0.752;2023-01-28T14:17:58;102309.03;;;6.54;100.00
38812;BME280;24553;51.640;-0.752;2023-01-28T14:20:29;102304.50;;;6.56;100.00
38812;BME280;24553;51.640;-0.752;2023-01-28T14:23:05;102296.81;;;6.64;100.00
38812;BME280;24553;51.640;-0.752;2023-01-28T14:25:53;102307.72;;;6.71;100.00
38812;BME280;24553;51.640;-0.752;2023-01-28T14:28:57;102311.19;;;6.60;100.00
38812;BME280;24553;51.640;-0.752;2023-01-28T14:31:32;102312.28;;;6.58;100.00